sensor_id;sensor_type;location;lat;lon;timestamp;P1;durP1;ratioP1;P2;durP2;ratioP2
55170;SDS011;41060;47.510;8.680;2024-03-23T00:54:17;2.50;;;1.50;;
55170;SDS011;41060;47.510;8.680;2024-03-23T00:56:43;4.00;;;1.20;;
55170;SDS011;41060;47.510;8.680;2024-03-23T00:59:11;2.45;;;1.45;;
55170;SDS011;41060;47.510;8.680;2024-03-23T01:01:39;1.98;;;1.15;;
55170;SDS011;41060;47.510;8.680;2024-03-23T01:04:05;3.20;;;1.23;;
55170;SDS011;41060;47.510;8.680;2024-03-23T01:06:31;2.53;;;1.45;;
55170;SDS011;41060;47.510;8.680;2024-03-23T01:08:58;2.88;;;1.30;;
55170;SDS011;41060;47.510;8.680;2024-03-23T01:11:26;3.70;;;1.25;;
55170;SDS011;41060;47.510;8.680;2024-03-23T01:13:55;2.25;;;1.40;;
55170;SDS011;41060;47.510;8.680;2024-03-23T01:16:22;1.90;;;1.05;;
55170;SDS011;41060;47.510;8.680;2024-03-23T01:18:48;3.42;;;1.27;;
55170;SDS011;41060;47.510;8.680;2024-03-23T01:21:14;1.77;;;1.05;;
55170;SDS011;41060;47.510;8.680;2024-03-23T01:23:41;2.17;;;1.20;;
55170;SDS011;41060;47.510;8.680;2024-03-23T01:26:08;2.30;;;1.33;;
55170;SDS011;41060;47.510;8.680;2024-03-23T01:28:35;2.55;;;1.58;;
55170;SDS011;41060;47.510;8.680;2024-03-23T01:31:02;3.28;;;1.80;;
55170;SDS011;41060;47.510;8.680;2024-03-23T01:33:28;2.45;;;1.42;;
55170;SDS011;41060;47.510;8.680;2024-03-23T01:35:54;3.28;;;1.42;;
55170;SDS011;41060;47.510;8.680;2024-03-23T01:38:21;4.95;;;1.48;;
55170;SDS011;41060;47.510;8.680;2024-03-23T01:40:47;3.92;;;1.70;;
55170;SDS011;41060;47.510;8.680;2024-03-23T01:43:13;3.03;;;1.00;;
55170;SDS011;41060;47.510;8.680;2024-03-23T01:45:42;2.13;;;1.50;;
55170;SDS011;41060;47.510;8.680;2024-03-23T01:48:07;2.85;;;1.55;;
55170;SDS011;41060;47.510;8.680;2024-03-23T01:50:35;1.63;;;1.10;;
55170;SDS011;41060;47.510;8.680;2024-03-23T01:53:02;3.53;;;1.33;;
55170;SDS011;41060;47.510;8.680;2024-03-23T01:55:30;2.10;;;1.10;;
55170;SDS011;41060;47.510;8.680;2024-03-23T01:57:56;3.00;;;1.33;;
55170;SDS011;41060;47.510;8.680;2024-03-23T02:00:24;2.30;;;1.30;;
55170;SDS011;41060;47.510;8.680;2024-03-23T02:02:51;2.33;;;1.40;;
55170;SDS011;41060;47.510;8.680;2024-03-23T02:05:18;2.22;;;1.15;;
55170;SDS011;41060;47.510;8.680;2024-03-23T02:07:44;3.80;;;1.50;;
55170;SDS011;41060;47.510;8.680;2024-03-23T02:10:11;2.17;;;1.10;;
55170;SDS011;41060;47.510;8.680;2024-03-23T02:12:40;3.83;;;1.00;;
55170;SDS011;41060;47.510;8.680;2024-03-23T02:15:07;2.38;;;1.35;;
55170;SDS011;41060;47.510;8.680;2024-03-23T02:17:34;3.72;;;1.77;;
55170;SDS011;41060;47.510;8.680;2024-03-23T02:20:02;3.13;;;1.23;;
55170;SDS011;41060;47.510;8.680;2024-03-23T02:22:38;7.65;;;1.48;;
55170;SDS011;41060;47.510;8.680;2024-03-23T02:25:07;4.70;;;1.33;;
55170;SDS011;41060;47.510;8.680;2024-03-23T02:27:33;4.30;;;1.10;;
55170;SDS011;41060;47.510;8.680;2024-03-23T02:30:01;2.63;;;0.98;;
55170;SDS011;41060;47.510;8.680;2024-03-23T02:32:26;3.58;;;1.45;;
55170;SDS011;41060;47.510;8.680;2024-03-23T02:34:53;2.10;;;1.02;;
55170;SDS011;41060;47.510;8.680;2024-03-23T02:37:19;2.00;;;1.40;;
55170;SDS011;41060;47.510;8.680;2024-03-23T02:39:46;2.47;;;1.27;;
55170;SDS011;41060;47.510;8.680;2024-03-23T02:42:13;2.60;;;1.42;;
55170;SDS011;41060;47.510;8.680;2024-03-23T02:44:42;3.08;;;1.42;;
55170;SDS011;41060;47.510;8.680;2024-03-23T02:47:07;1.83;;;1.13;;
55170;SDS011;41060;47.510;8.680;2024-03-23T02:49:34;2.85;;;1.13;;
55170;SDS011;41060;47.510;8.680;2024-03-23T02:52:00;2.10;;;0.98;;
55170;SDS011;41060;47.510;8.680;2024-03-23T02:54:27;3.22;;;1.50;;
55170;SDS011;41060;47.510;8.680;2024-03-23T02:56:53;3.15;;;1.20;;
55170;SDS011;41060;47.510;8.680;2024-03-23T02:59:21;1.60;;;0.95;;
55170;SDS011;41060;47.510;8.680;2024-03-23T03:01:46;2.78;;;1.00;;
55170;SDS011;41060;47.510;8.680;2024-03-23T03:04:14;4.15;;;1.27;;
55170;SDS011;41060;47.510;8.680;2024-03-23T03:06:39;2.15;;;1.08;;
55170;SDS011;41060;47.510;8.680;2024-03-23T03:09:06;1.73;;;1.05;;
55170;SDS011;41060;47.510;8.680;2024-03-23T03:11:32;3.05;;;1.10;;
55170;SDS011;41060;47.510;8.680;2024-03-23T03:13:59;2.22;;;1.13;;
55170;SDS011;41060;47.510;8.680;2024-03-23T03:16:26;2.70;;;1.45;;
55170;SDS011;41060;47.510;8.680;2024-03-23T03:18:54;2.08;;;1.05;;
55170;SDS011;41060;47.510;8.680;2024-03-23T03:21:19;2.05;;;1.00;;
55170;SDS011;41060;47.510;8.680;2024-03-23T03:23:47;2.10;;;1.20;;
55170;SDS011;41060;47.510;8.680;2024-03-23T03:26:16;1.60;;;1.13;;
55170;SDS011;41060;47.510;8.680;2024-03-23T03:28:43;3.20;;;1.52;;
55170;SDS011;41060;47.510;8.680;2024-03-23T03:31:13;2.30;;;1.30;;
55170;SDS011;41060;47.510;8.680;2024-03-23T03:33:42;2.45;;;1.20;;
55170;SDS011;41060;47.510;8.680;2024-03-23T03:36:08;2.45;;;1.13;;
55170;SDS011;41060;47.510;8.680;2024-03-23T03:38:34;4.00;;;1.50;;
55170;SDS011;41060;47.510;8.680;2024-03-23T03:41:01;2.53;;;1.48;;
55170;SDS011;41060;47.510;8.680;2024-03-23T03:43:27;2.08;;;1.00;;
55170;SDS011;41060;47.510;8.680;2024-03-23T03:45:53;3.45;;;1.10;;
55170;SDS011;41060;47.510;8.680;2024-03-23T03:48:20;2.55;;;1.10;;
55170;SDS011;41060;47.510;8.680;2024-03-23T03:50:47;1.55;;;1.08;;
55170;SDS011;41060;47.510;8.680;2024-03-23T03:53:14;4.60;;;1.30;;
55170;SDS011;41060;47.510;8.680;2024-03-23T03:55:40;2.17;;;1.15;;
55170;SDS011;41060;47.510;8.680;2024-03-23T03:58:07;3.00;;;1.10;;
55170;SDS011;41060;47.510;8.680;2024-03-23T04:00:33;2.08;;;1.33;;
55170;SDS011;41060;47.510;8.680;2024-03-23T04:03:01;1.52;;;1.25;;
55170;SDS011;41060;47.510;8.680;2024-03-23T04:05:29;1.70;;;1.02;;
55170;SDS011;41060;47.510;8.680;2024-03-23T04:07:57;5.00;;;1.27;;
55170;SDS011;41060;47.510;8.680;2024-03-23T04:10:23;3.95;;;1.20;;
55170;SDS011;41060;47.510;8.680;2024-03-23T04:12:50;2.60;;;1.27;;
55170;SDS011;41060;47.510;8.680;2024-03-23T04:15:16;4.85;;;1.92;;
55170;SDS011;41060;47.510;8.680;2024-03-23T04:17:43;3.90;;;1.02;;
55170;SDS011;41060;47.510;8.680;2024-03-23T04:20:09;3.55;;;1.25;;
55170;SDS011;41060;47.510;8.680;2024-03-23T04:22:43;2.22;;;1.25;;
55170;SDS011;41060;47.510;8.680;2024-03-23T04:25:11;3.15;;;1.10;;
55170;SDS011;41060;47.510;8.680;2024-03-23T04:27:38;3.30;;;1.50;;
55170;SDS011;41060;47.510;8.680;2024-03-23T04:30:04;1.88;;;1.10;;
55170;SDS011;41060;47.510;8.680;2024-03-23T04:32:36;1.92;;;1.02;;
55170;SDS011;41060;47.510;8.680;2024-03-23T04:35:02;2.08;;;1.20;;
55170;SDS011;41060;47.510;8.680;2024-03-23T04:37:32;3.15;;;1.20;;
55170;SDS011;41060;47.510;8.680;2024-03-23T04:40:00;3.20;;;1.40;;
55170;SDS011;41060;47.510;8.680;2024-03-23T04:42:29;2.72;;;1.40;;
55170;SDS011;41060;47.510;8.680;2024-03-23T04:44:57;1.98;;;1.27;;
55170;SDS011;41060;47.510;8.680;2024-03-23T04:47:24;2.38;;;1.27;;
55170;SDS011;41060;47.510;8.680;2024-03-23T04:49:50;1.60;;;0.93;;
55170;SDS011;41060;47.510;8.680;2024-03-23T04:52:17;1.70;;;1.02;;
55170;SDS011;41060;47.510;8.680;2024-03-23T04:54:44;1.38;;;0.95;;
55170;SDS011;41060;47.510;8.680;2024-03-23T04:57:11;3.63;;;1.30;;
55170;SDS011;41060;47.510;8.680;2024-03-23T04:59:42;4.18;;;1.33;;
55170;SDS011;41060;47.510;8.680;2024-03-23T05:02:08;6.40;;;1.55;;
55170;SDS011;41060;47.510;8.680;2024-03-23T05:04:35;2.20;;;1.00;;
55170;SDS011;41060;47.510;8.680;2024-03-23T05:07:02;2.72;;;1.20;;
55170;SDS011;41060;47.510;8.680;2024-03-23T05:09:30;2.58;;;1.20;;
55170;SDS011;41060;47.510;8.680;2024-03-23T05:11:55;4.28;;;1.23;;
55170;SDS011;41060;47.510;8.680;2024-03-23T05:14:22;2.38;;;1.38;;
55170;SDS011;41060;47.510;8.680;2024-03-23T05:16:52;2.22;;;1.20;;
55170;SDS011;41060;47.510;8.680;2024-03-23T05:19:19;1.75;;;1.15;;
55170;SDS011;41060;47.510;8.680;2024-03-23T05:21:45;1.90;;;1.15;;
55170;SDS011;41060;47.510;8.680;2024-03-23T05:24:12;1.73;;;0.95;;
55170;SDS011;41060;47.510;8.680;2024-03-23T05:26:38;3.80;;;1.20;;
55170;SDS011;41060;47.510;8.680;2024-03-23T05:29:04;2.42;;;1.50;;
55170;SDS011;41060;47.510;8.680;2024-03-23T05:31:32;2.08;;;1.13;;
55170;SDS011;41060;47.510;8.680;2024-03-23T05:34:00;3.65;;;1.65;;
55170;SDS011;41060;47.510;8.680;2024-03-23T05:36:26;2.35;;;1.45;;
55170;SDS011;41060;47.510;8.680;2024-03-23T05:38:53;1.60;;;1.10;;
55170;SDS011;41060;47.510;8.680;2024-03-23T05:41:19;4.93;;;1.40;;
55170;SDS011;41060;47.510;8.680;2024-03-23T05:43:45;3.13;;;1.60;;
55170;SDS011;41060;47.510;8.680;2024-03-23T05:46:11;2.63;;;1.27;;
55170;SDS011;41060;47.510;8.680;2024-03-23T05:48:38;4.47;;;1.30;;
55170;SDS011;41060;47.510;8.680;2024-03-23T05:51:05;2.47;;;1.35;;
55170;SDS011;41060;47.510;8.680;2024-03-23T05:53:34;2.88;;;1.55;;
55170;SDS011;41060;47.510;8.680;2024-03-23T05:56:01;2.85;;;1.40;;
55170;SDS011;41060;47.510;8.680;2024-03-23T05:58:30;2.17;;;1.20;;
55170;SDS011;41060;47.510;8.680;2024-03-23T06:00:57;3.75;;;1.65;;
55170;SDS011;41060;47.510;8.680;2024-03-23T06:03:24;2.10;;;1.27;;
55170;SDS011;41060;47.510;8.680;2024-03-23T06:05:51;4.97;;;1.42;;
55170;SDS011;41060;47.510;8.680;2024-03-23T06:08:19;4.38;;;1.67;;
55170;SDS011;41060;47.510;8.680;2024-03-23T06:10:45;2.97;;;1.90;;
55170;SDS011;41060;47.510;8.680;2024-03-23T06:13:11;2.33;;;1.83;;
55170;SDS011;41060;47.510;8.680;2024-03-23T06:15:38;2.65;;;1.40;;
55170;SDS011;41060;47.510;8.680;2024-03-23T06:18:04;4.03;;;1.85;;
55170;SDS011;41060;47.510;8.680;2024-03-23T06:20:33;2.63;;;1.60;;
55170;SDS011;41060;47.510;8.680;2024-03-23T06:22:59;4.43;;;2.00;;
55170;SDS011;41060;47.510;8.680;2024-03-23T06:25:27;2.78;;;1.80;;
55170;SDS011;41060;47.510;8.680;2024-03-23T06:27:52;2.63;;;1.70;;
55170;SDS011;41060;47.510;8.680;2024-03-23T06:30:20;5.57;;;2.30;;
55170;SDS011;41060;47.510;8.680;2024-03-23T06:32:45;3.83;;;1.83;;
55170;SDS011;41060;47.510;8.680;2024-03-23T06:35:12;2.58;;;1.35;;
55170;SDS011;41060;47.510;8.680;2024-03-23T06:37:38;4.03;;;2.10;;
55170;SDS011;41060;47.510;8.680;2024-03-23T06:40:06;4.88;;;2.67;;
55170;SDS011;41060;47.510;8.680;2024-03-23T06:42:36;2.67;;;1.73;;
55170;SDS011;41060;47.510;8.680;2024-03-23T06:45:03;5.72;;;2.30;;
55170;SDS011;41060;47.510;8.680;2024-03-23T06:47:32;5.28;;;2.15;;
55170;SDS011;41060;47.510;8.680;2024-03-23T06:49:59;3.70;;;1.77;;
55170;SDS011;41060;47.510;8.680;2024-03-23T06:52:27;4.30;;;2.10;;
55170;SDS011;41060;47.510;8.680;2024-03-23T06:54:54;3.17;;;2.05;;
55170;SDS011;41060;47.510;8.680;2024-03-23T06:57:20;2.50;;;1.77;;
55170;SDS011;41060;47.510;8.680;2024-03-23T06:59:48;3.95;;;2.28;;
55170;SDS011;41060;47.510;8.680;2024-03-23T07:02:14;3.05;;;1.85;;
55170;SDS011;41060;47.510;8.680;2024-03-23T07:04:41;4.10;;;2.28;;
55170;SDS011;41060;47.510;8.680;2024-03-23T07:07:07;3.17;;;2.00;;
55170;SDS011;41060;47.510;8.680;2024-03-23T07:09:34;3.58;;;2.13;;
55170;SDS011;41060;47.510;8.680;2024-03-23T07:11:59;2.58;;;1.42;;
55170;SDS011;41060;47.510;8.680;2024-03-23T07:14:27;2.65;;;1.67;;
55170;SDS011;41060;47.510;8.680;2024-03-23T07:16:54;3.13;;;1.75;;
55170;SDS011;41060;47.510;8.680;2024-03-23T07:19:22;3.83;;;1.98;;
55170;SDS011;41060;47.510;8.680;2024-03-23T07:21:50;3.75;;;1.60;;
55170;SDS011;41060;47.510;8.680;2024-03-23T07:24:17;6.30;;;2.17;;
55170;SDS011;41060;47.510;8.680;2024-03-23T07:26:42;2.78;;;1.50;;
55170;SDS011;41060;47.510;8.680;2024-03-23T07:29:09;3.00;;;1.70;;
55170;SDS011;41060;47.510;8.680;2024-03-23T07:31:35;3.10;;;1.40;;
55170;SDS011;41060;47.510;8.680;2024-03-23T07:34:03;2.65;;;1.70;;
55170;SDS011;41060;47.510;8.680;2024-03-23T07:36:29;4.07;;;2.10;;
55170;SDS011;41060;47.510;8.680;2024-03-23T07:38:56;2.97;;;1.83;;
55170;SDS011;41060;47.510;8.680;2024-03-23T07:41:21;2.58;;;1.73;;
55170;SDS011;41060;47.510;8.680;2024-03-23T07:43:53;2.92;;;1.58;;
55170;SDS011;41060;47.510;8.680;2024-03-23T07:46:20;3.28;;;1.80;;
55170;SDS011;41060;47.510;8.680;2024-03-23T07:48:47;8.95;;;2.10;;
55170;SDS011;41060;47.510;8.680;2024-03-23T07:51:15;2.40;;;1.63;;
55170;SDS011;41060;47.510;8.680;2024-03-23T07:53:43;4.07;;;2.15;;
55170;SDS011;41060;47.510;8.680;2024-03-23T07:56:14;2.72;;;1.33;;
55170;SDS011;41060;47.510;8.680;2024-03-23T07:58:43;2.72;;;1.55;;
55170;SDS011;41060;47.510;8.680;2024-03-23T08:01:09;1.52;;;1.15;;
55170;SDS011;41060;47.510;8.680;2024-03-23T08:03:39;3.08;;;1.40;;
55170;SDS011;41060;47.510;8.680;2024-03-23T08:06:07;2.30;;;1.23;;
55170;SDS011;41060;47.510;8.680;2024-03-23T08:08:35;3.83;;;1.35;;
55170;SDS011;41060;47.510;8.680;2024-03-23T08:11:02;3.33;;;1.48;;
55170;SDS011;41060;47.510;8.680;2024-03-23T08:13:29;3.10;;;1.42;;
55170;SDS011;41060;47.510;8.680;2024-03-23T08:15:56;1.17;;;0.50;;
55170;SDS011;41060;47.510;8.680;2024-03-23T08:18:23;1.58;;;0.60;;
55170;SDS011;41060;47.510;8.680;2024-03-23T08:20:55;1.10;;;0.65;;
55170;SDS011;41060;47.510;8.680;2024-03-23T08:23:23;0.70;;;0.40;;
55170;SDS011;41060;47.510;8.680;2024-03-23T08:25:50;0.38;;;0.30;;
55170;SDS011;41060;47.510;8.680;2024-03-23T08:28:17;1.17;;;0.57;;
55170;SDS011;41060;47.510;8.680;2024-03-23T08:30:43;0.55;;;0.28;;
55170;SDS011;41060;47.510;8.680;2024-03-23T08:33:10;0.50;;;0.20;;
55170;SDS011;41060;47.510;8.680;2024-03-23T08:35:35;0.30;;;0.20;;
55170;SDS011;41060;47.510;8.680;2024-03-23T08:38:03;0.20;;;0.20;;
55170;SDS011;41060;47.510;8.680;2024-03-23T08:40:29;2.38;;;0.40;;
55170;SDS011;41060;47.510;8.680;2024-03-23T08:42:57;0.32;;;0.20;;
55170;SDS011;41060;47.510;8.680;2024-03-23T08:45:24;0.65;;;0.30;;
55170;SDS011;41060;47.510;8.680;2024-03-23T08:47:50;1.85;;;0.28;;
55170;SDS011;41060;47.510;8.680;2024-03-23T08:50:17;0.47;;;0.20;;
55170;SDS011;41060;47.510;8.680;2024-03-23T08:52:43;0.10;;;0.10;;
55170;SDS011;41060;47.510;8.680;2024-03-23T08:55:10;0.52;;;0.30;;
55170;SDS011;41060;47.510;8.680;2024-03-23T08:57:36;0.60;;;0.40;;
55170;SDS011;41060;47.510;8.680;2024-03-23T09:00:05;0.70;;;0.28;;
55170;SDS011;41060;47.510;8.680;2024-03-23T09:02:34;0.15;;;0.10;;
55170;SDS011;41060;47.510;8.680;2024-03-23T09:05:00;1.60;;;0.20;;
55170;SDS011;41060;47.510;8.680;2024-03-23T09:07:30;0.65;;;0.40;;
55170;SDS011;41060;47.510;8.680;2024-03-23T09:09:57;0.60;;;0.30;;
55170;SDS011;41060;47.510;8.680;2024-03-23T09:12:22;1.10;;;0.47;;
55170;SDS011;41060;47.510;8.680;2024-03-23T09:14:49;0.70;;;0.40;;
55170;SDS011;41060;47.510;8.680;2024-03-23T09:17:17;2.08;;;0.65;;
55170;SDS011;41060;47.510;8.680;2024-03-23T09:19:46;0.50;;;0.40;;
55170;SDS011;41060;47.510;8.680;2024-03-23T09:22:12;4.40;;;0.88;;
55170;SDS011;41060;47.510;8.680;2024-03-23T09:24:39;1.35;;;0.40;;
55170;SDS011;41060;47.510;8.680;2024-03-23T09:27:05;3.40;;;0.68;;
55170;SDS011;41060;47.510;8.680;2024-03-23T09:29:33;2.00;;;0.77;;
55170;SDS011;41060;47.510;8.680;2024-03-23T09:31:58;2.70;;;0.63;;
55170;SDS011;41060;47.510;8.680;2024-03-23T09:34:26;2.38;;;1.15;;
55170;SDS011;41060;47.510;8.680;2024-03-23T09:36:52;2.17;;;0.80;;
55170;SDS011;41060;47.510;8.680;2024-03-23T09:39:19;1.73;;;0.50;;
55170;SDS011;41060;47.510;8.680;2024-03-23T09:41:45;3.30;;;0.80;;
55170;SDS011;41060;47.510;8.680;2024-03-23T09:44:12;1.25;;;0.57;;
55170;SDS011;41060;47.510;8.680;2024-03-23T09:46:38;1.55;;;0.70;;
55170;SDS011;41060;47.510;8.680;2024-03-23T09:49:05;1.05;;;0.68;;
55170;SDS011;41060;47.510;8.680;2024-03-23T09:51:36;2.00;;;0.80;;
55170;SDS011;41060;47.510;8.680;2024-03-23T09:54:03;6.20;;;0.93;;
55170;SDS011;41060;47.510;8.680;2024-03-23T09:56:29;2.25;;;0.68;;
55170;SDS011;41060;47.510;8.680;2024-03-23T09:59:02;1.30;;;0.55;;
55170;SDS011;41060;47.510;8.680;2024-03-23T10:01:29;1.48;;;0.75;;
55170;SDS011;41060;47.510;8.680;2024-03-23T10:03:56;1.90;;;0.73;;
55170;SDS011;41060;47.510;8.680;2024-03-23T10:06:22;1.70;;;0.98;;
55170;SDS011;41060;47.510;8.680;2024-03-23T10:08:52;4.72;;;0.70;;
55170;SDS011;41060;47.510;8.680;2024-03-23T10:11:20;3.35;;;0.98;;
55170;SDS011;41060;47.510;8.680;2024-03-23T10:13:47;3.78;;;0.88;;
55170;SDS011;41060;47.510;8.680;2024-03-23T10:16:20;7.40;;;1.30;;
55170;SDS011;41060;47.510;8.680;2024-03-23T10:18:48;5.45;;;1.20;;
55170;SDS011;41060;47.510;8.680;2024-03-23T10:21:16;5.35;;;1.38;;
55170;SDS011;41060;47.510;8.680;2024-03-23T10:23:42;2.00;;;0.85;;
55170;SDS011;41060;47.510;8.680;2024-03-23T10:26:15;3.13;;;0.90;;
55170;SDS011;41060;47.510;8.680;2024-03-23T10:28:52;3.13;;;0.90;;
55170;SDS011;41060;47.510;8.680;2024-03-23T10:31:26;3.05;;;1.13;;
55170;SDS011;41060;47.510;8.680;2024-03-23T10:33:53;0.60;;;0.32;;
55170;SDS011;41060;47.510;8.680;2024-03-23T10:36:20;3.33;;;0.68;;
55170;SDS011;41060;47.510;8.680;2024-03-23T10:38:50;2.35;;;0.70;;
55170;SDS011;41060;47.510;8.680;2024-03-23T10:41:18;1.58;;;0.70;;
55170;SDS011;41060;47.510;8.680;2024-03-23T10:43:45;0.90;;;0.55;;
55170;SDS011;41060;47.510;8.680;2024-03-23T10:46:13;1.33;;;0.63;;
55170;SDS011;41060;47.510;8.680;2024-03-23T10:48:39;2.67;;;1.05;;
55170;SDS011;41060;47.510;8.680;2024-03-23T10:51:06;5.13;;;1.25;;
55170;SDS011;41060;47.510;8.680;2024-03-23T10:53:34;3.97;;;0.75;;
55170;SDS011;41060;47.510;8.680;2024-03-23T10:56:02;4.35;;;1.00;;
55170;SDS011;41060;47.510;8.680;2024-03-23T10:58:31;3.22;;;0.80;;
55170;SDS011;41060;47.510;8.680;2024-03-23T11:01:02;2.35;;;1.10;;
55170;SDS011;41060;47.510;8.680;2024-03-23T11:03:31;4.53;;;0.80;;
55170;SDS011;41060;47.510;8.680;2024-03-23T11:05:59;3.95;;;0.98;;
55170;SDS011;41060;47.510;8.680;2024-03-23T11:08:32;3.22;;;1.15;;
55170;SDS011;41060;47.510;8.680;2024-03-23T11:11:13;3.35;;;1.02;;
55170;SDS011;41060;47.510;8.680;2024-03-23T11:13:42;3.97;;;1.30;;
55170;SDS011;41060;47.510;8.680;2024-03-23T11:16:15;3.85;;;0.73;;
55170;SDS011;41060;47.510;8.680;2024-03-23T11:18:42;2.22;;;0.52;;
55170;SDS011;41060;47.510;8.680;2024-03-23T11:21:10;0.90;;;0.52;;
55170;SDS011;41060;47.510;8.680;2024-03-23T11:26:41;5.50;;;1.17;;
55170;SDS011;41060;47.510;8.680;2024-03-23T11:29:11;4.47;;;1.05;;
55170;SDS011;41060;47.510;8.680;2024-03-23T11:31:38;3.47;;;0.80;;
55170;SDS011;41060;47.510;8.680;2024-03-23T11:34:04;1.42;;;0.90;;
55170;SDS011;41060;47.510;8.680;2024-03-23T11:36:35;1.38;;;0.65;;
55170;SDS011;41060;47.510;8.680;2024-03-23T11:39:11;1.98;;;1.38;;
55170;SDS011;41060;47.510;8.680;2024-03-23T11:41:46;4.00;;;0.73;;
55170;SDS011;41060;47.510;8.680;2024-03-23T11:46:43;3.45;;;0.77;;
55170;SDS011;41060;47.510;8.680;2024-03-23T11:49:19;3.13;;;0.80;;
55170;SDS011;41060;47.510;8.680;2024-03-23T11:51:47;2.92;;;0.52;;
55170;SDS011;41060;47.510;8.680;2024-03-23T11:54:13;3.08;;;0.63;;
55170;SDS011;41060;47.510;8.680;2024-03-23T11:56:54;4.38;;;1.13;;
55170;SDS011;41060;47.510;8.680;2024-03-23T11:59:31;1.13;;;0.43;;
55170;SDS011;41060;47.510;8.680;2024-03-23T12:01:59;3.70;;;0.65;;
55170;SDS011;41060;47.510;8.680;2024-03-23T12:04:26;4.20;;;1.27;;
55170;SDS011;41060;47.510;8.680;2024-03-23T12:09:35;4.97;;;1.58;;
55170;SDS011;41060;47.510;8.680;2024-03-23T12:12:06;6.25;;;0.77;;
55170;SDS011;41060;47.510;8.680;2024-03-23T12:14:33;0.98;;;0.47;;
55170;SDS011;41060;47.510;8.680;2024-03-23T12:17:07;0.93;;;0.40;;
55170;SDS011;41060;47.510;8.680;2024-03-23T12:19:34;0.95;;;0.65;;
55170;SDS011;41060;47.510;8.680;2024-03-23T12:22:02;1.90;;;0.60;;
55170;SDS011;41060;47.510;8.680;2024-03-23T12:24:29;1.38;;;0.20;;
55170;SDS011;41060;47.510;8.680;2024-03-23T12:26:59;2.55;;;0.40;;
55170;SDS011;41060;47.510;8.680;2024-03-23T12:29:28;2.10;;;0.75;;
55170;SDS011;41060;47.510;8.680;2024-03-23T12:31:56;0.57;;;0.40;;
55170;SDS011;41060;47.510;8.680;2024-03-23T12:34:22;3.15;;;0.77;;
55170;SDS011;41060;47.510;8.680;2024-03-23T12:36:49;0.88;;;0.63;;
55170;SDS011;41060;47.510;8.680;2024-03-23T12:39:15;5.00;;;0.73;;
55170;SDS011;41060;47.510;8.680;2024-03-23T12:41:42;4.80;;;0.95;;
55170;SDS011;41060;47.510;8.680;2024-03-23T12:44:08;2.53;;;0.63;;
55170;SDS011;41060;47.510;8.680;2024-03-23T12:46:38;2.00;;;0.80;;
55170;SDS011;41060;47.510;8.680;2024-03-23T12:49:03;4.82;;;0.90;;
55170;SDS011;41060;47.510;8.680;2024-03-23T12:51:31;5.20;;;0.75;;
55170;SDS011;41060;47.510;8.680;2024-03-23T12:53:57;3.00;;;1.20;;
55170;SDS011;41060;47.510;8.680;2024-03-23T12:56:23;1.48;;;0.55;;
55170;SDS011;41060;47.510;8.680;2024-03-23T12:58:53;4.20;;;1.00;;
55170;SDS011;41060;47.510;8.680;2024-03-23T13:01:22;5.13;;;0.88;;
55170;SDS011;41060;47.510;8.680;2024-03-23T13:03:49;3.83;;;0.80;;
55170;SDS011;41060;47.510;8.680;2024-03-23T13:06:17;4.30;;;0.88;;
55170;SDS011;41060;47.510;8.680;2024-03-23T13:08:43;4.00;;;0.73;;
55170;SDS011;41060;47.510;8.680;2024-03-23T13:11:11;3.75;;;0.80;;
55170;SDS011;41060;47.510;8.680;2024-03-23T13:13:37;3.92;;;0.95;;
55170;SDS011;41060;47.510;8.680;2024-03-23T13:16:04;5.32;;;1.40;;
55170;SDS011;41060;47.510;8.680;2024-03-23T13:18:32;3.47;;;0.60;;
55170;SDS011;41060;47.510;8.680;2024-03-23T13:21:01;5.88;;;0.88;;
55170;SDS011;41060;47.510;8.680;2024-03-23T13:23:27;4.15;;;0.80;;
55170;SDS011;41060;47.510;8.680;2024-03-23T13:25:55;5.18;;;0.82;;
55170;SDS011;41060;47.510;8.680;2024-03-23T13:28:22;2.67;;;0.95;;
55170;SDS011;41060;47.510;8.680;2024-03-23T13:30:52;4.70;;;0.80;;
55170;SDS011;41060;47.510;8.680;2024-03-23T13:33:18;5.20;;;1.33;;
55170;SDS011;41060;47.510;8.680;2024-03-23T13:35:48;1.52;;;0.80;;
55170;SDS011;41060;47.510;8.680;2024-03-23T13:38:16;4.45;;;1.38;;
55170;SDS011;41060;47.510;8.680;2024-03-23T13:40:52;2.47;;;1.42;;
55170;SDS011;41060;47.510;8.680;2024-03-23T13:43:18;2.33;;;1.02;;
55170;SDS011;41060;47.510;8.680;2024-03-23T13:45:46;2.70;;;0.75;;
55170;SDS011;41060;47.510;8.680;2024-03-23T13:48:12;5.45;;;1.73;;
55170;SDS011;41060;47.510;8.680;2024-03-23T13:50:40;4.40;;;1.05;;
55170;SDS011;41060;47.510;8.680;2024-03-23T13:53:05;5.78;;;0.80;;
55170;SDS011;41060;47.510;8.680;2024-03-23T13:55:34;2.33;;;0.70;;
55170;SDS011;41060;47.510;8.680;2024-03-23T13:58:01;2.03;;;0.85;;
55170;SDS011;41060;47.510;8.680;2024-03-23T14:00:28;2.28;;;0.77;;
55170;SDS011;41060;47.510;8.680;2024-03-23T14:02:53;3.05;;;0.90;;
55170;SDS011;41060;47.510;8.680;2024-03-23T14:05:23;0.82;;;0.47;;
55170;SDS011;41060;47.510;8.680;2024-03-23T14:07:50;5.00;;;1.20;;
55170;SDS011;41060;47.510;8.680;2024-03-23T14:10:16;0.68;;;0.40;;
55170;SDS011;41060;47.510;8.680;2024-03-23T14:12:44;5.20;;;0.85;;
55170;SDS011;41060;47.510;8.680;2024-03-23T14:15:11;3.17;;;0.73;;
55170;SDS011;41060;47.510;8.680;2024-03-23T14:17:36;4.25;;;0.82;;
55170;SDS011;41060;47.510;8.680;2024-03-23T14:20:04;1.42;;;0.60;;
55170;SDS011;41060;47.510;8.680;2024-03-23T14:22:31;4.38;;;0.55;;
55170;SDS011;41060;47.510;8.680;2024-03-23T14:24:58;3.47;;;0.77;;
55170;SDS011;41060;47.510;8.680;2024-03-23T14:27:24;2.15;;;0.50;;
55170;SDS011;41060;47.510;8.680;2024-03-23T14:29:52;0.57;;;0.30;;
55170;SDS011;41060;47.510;8.680;2024-03-23T14:32:18;1.83;;;0.60;;
55170;SDS011;41060;47.510;8.680;2024-03-23T14:34:45;1.58;;;0.50;;
55170;SDS011;41060;47.510;8.680;2024-03-23T14:37:11;3.65;;;0.40;;
55170;SDS011;41060;47.510;8.680;2024-03-23T14:39:41;2.63;;;0.60;;
55170;SDS011;41060;47.510;8.680;2024-03-23T14:42:07;5.10;;;0.80;;
55170;SDS011;41060;47.510;8.680;2024-03-23T14:44:34;2.28;;;0.70;;
55170;SDS011;41060;47.510;8.680;2024-03-23T14:47:01;2.63;;;0.70;;
55170;SDS011;41060;47.510;8.680;2024-03-23T14:49:28;1.25;;;0.85;;
55170;SDS011;41060;47.510;8.680;2024-03-23T14:51:54;2.22;;;1.00;;
55170;SDS011;41060;47.510;8.680;2024-03-23T14:54:21;4.18;;;0.85;;
55170;SDS011;41060;47.510;8.680;2024-03-23T14:56:47;4.43;;;0.80;;
55170;SDS011;41060;47.510;8.680;2024-03-23T14:59:13;1.27;;;0.65;;
55170;SDS011;41060;47.510;8.680;2024-03-23T15:01:39;1.58;;;0.50;;
55170;SDS011;41060;47.510;8.680;2024-03-23T15:04:08;1.63;;;0.60;;
55170;SDS011;41060;47.510;8.680;2024-03-23T15:06:34;1.55;;;0.57;;
55170;SDS011;41060;47.510;8.680;2024-03-23T15:09:01;3.22;;;0.82;;
55170;SDS011;41060;47.510;8.680;2024-03-23T15:11:27;1.80;;;0.47;;
55170;SDS011;41060;47.510;8.680;2024-03-23T15:13:57;0.50;;;0.30;;
55170;SDS011;41060;47.510;8.680;2024-03-23T15:16:23;1.05;;;0.40;;
55170;SDS011;41060;47.510;8.680;2024-03-23T15:18:50;0.75;;;0.40;;
55170;SDS011;41060;47.510;8.680;2024-03-23T15:21:17;2.13;;;0.43;;
55170;SDS011;41060;47.510;8.680;2024-03-23T15:23:46;3.38;;;0.50;;
55170;SDS011;41060;47.510;8.680;2024-03-23T15:26:12;5.60;;;0.82;;
55170;SDS011;41060;47.510;8.680;2024-03-23T15:28:39;3.03;;;0.50;;
55170;SDS011;41060;47.510;8.680;2024-03-23T15:31:06;1.25;;;0.20;;
55170;SDS011;41060;47.510;8.680;2024-03-23T15:33:35;3.88;;;0.60;;
55170;SDS011;41060;47.510;8.680;2024-03-23T15:36:01;2.80;;;0.60;;
55170;SDS011;41060;47.510;8.680;2024-03-23T15:38:30;4.57;;;0.47;;
55170;SDS011;41060;47.510;8.680;2024-03-23T15:40:57;1.50;;;0.38;;
55170;SDS011;41060;47.510;8.680;2024-03-23T15:43:24;3.05;;;0.43;;
55170;SDS011;41060;47.510;8.680;2024-03-23T15:45:56;2.00;;;0.47;;
55170;SDS011;41060;47.510;8.680;2024-03-23T15:48:25;3.78;;;0.50;;
55170;SDS011;41060;47.510;8.680;2024-03-23T15:50:52;1.08;;;0.70;;